Time;durP1;ratioP1;P1;durP2;ratioP2;P2;SDS_P1;SDS_P2;PMS_P1;PMS_P2;Temp;Humidity;BMP_temperature;BMP_pressure;BME280_temperature;BME280_humidity;BME280_pressure;Samples;Min_cycle;Max_cycle;Signal;HPM_P1;HPM_P2
2022/05/22 00:01:21;;;;;;;10.43;5.47;;;13.10;99.90;;;;;;4159262;28;20230;-80
2022/05/22 00:03:23;;;;;;;10.63;5.90;;;13.10;99.90;;;;;;4136405;28;20210;-80
2022/05/22 00:05:26;;;;;;;11.10;5.80;;;13.20;99.90;;;;;;4148398;28;20212;-80
2022/05/22 00:07:27;;;;;;;10.03;6.13;;;13.20;99.90;;;;;;4147236;28;20249;-80
2022/05/22 00:09:29;;;;;;;11.00;5.40;;;13.10;99.90;;;;;;4164206;28;20390;-80
2022/05/22 00:11:31;;;;;;;11.00;6.20;;;13.10;99.90;;;;;;4147572;28;20203;-80
2022/05/22 00:13:34;;;;;;;12.13;5.73;;;13.10;99.90;;;;;;4140986;28;20222;-80
2022/05/22 00:16:36;;;;;;;9.37;6.07;;;13.10;99.90;;;;;;4162321;28;20215;-80
2022/05/22 00:17:58;;;;;;;10.30;6.47;;;13.10;99.90;;;;;;4161545;28;20938;-81
2022/05/22 00:20:00;;;;;;;11.80;6.47;;;13.00;99.90;;;;;;4146569;28;20245;-81
2022/05/22 00:22:02;;;;;;;14.43;6.93;;;13.00;99.90;;;;;;4145790;28;20228;-80
2022/05/22 00:24:05;;;;;;;16.33;7.33;;;13.00;99.90;;;;;;4147830;28;20242;-80
2022/05/22 00:26:06;;;;;;;12.63;6.50;;;12.90;99.90;;;;;;4148239;28;20215;-81
2022/05/22 00:28:08;;;;;;;12.87;7.17;;;12.90;99.90;;;;;;4147376;28;20329;-84
2022/05/22 00:30:13;;;;;;;10.07;6.50;;;12.90;99.90;;;;;;4162992;28;20206;-80
2022/05/22 00:32:15;;;;;;;13.60;5.80;;;12.90;99.90;;;;;;4152076;28;20272;-80
2022/05/22 00:34:17;;;;;;;11.23;5.90;;;12.90;99.90;;;;;;4160848;28;20207;-80
2022/05/22 00:36:19;;;;;;;14.03;5.83;;;12.90;99.90;;;;;;4149006;22;20248;-79
2022/05/22 00:38:21;;;;;;;10.53;5.77;;;12.80;99.90;;;;;;4122186;28;20216;-80
2022/05/22 00:40:23;;;;;;;12.20;6.37;;;12.80;99.90;;;;;;4140048;28;20526;-76
2022/05/22 00:42:26;;;;;;;11.50;5.70;;;12.80;99.90;;;;;;4122326;28;20228;-78
2022/05/22 00:44:29;;;;;;;11.20;5.60;;;12.70;99.90;;;;;;4123706;28;20208;-79
2022/05/22 00:46:32;;;;;;;10.47;5.97;;;12.70;99.90;;;;;;4135686;28;20267;-79
2022/05/22 00:48:34;;;;;;;12.33;6.10;;;12.70;99.90;;;;;;4138260;28;20223;-79
2022/05/22 00:50:36;;;;;;;12.13;5.43;;;12.80;99.90;;;;;;4137251;28;20223;-79
2022/05/22 00:52:43;;;;;;;9.83;5.47;;;12.70;99.90;;;;;;4135310;28;20297;-78
2022/05/22 00:54:50;;;;;;;10.60;5.40;;;12.70;99.90;;;;;;4135430;28;20648;-79
2022/05/22 00:56:56;;;;;;;10.57;5.67;;;12.60;99.90;;;;;;4131090;28;20721;-79
2022/05/22 00:58:58;;;;;;;10.63;5.30;;;12.60;99.90;;;;;;4132960;28;20218;-77
2022/05/22 01:01:00;;;;;;;12.53;5.47;;;12.60;99.90;;;;;;4135275;28;20311;-79
2022/05/22 01:05:26;;;;;;;18.90;7.17;;;12.50;99.90;;;;;;4132985;28;20238;-80
2022/05/22 01:07:28;;;;;;;11.77;7.00;;;12.50;99.90;;;;;;4135136;28;20219;-78
2022/05/22 01:09:29;;;;;;;21.60;9.93;;;12.50;99.90;;;;;;4130779;28;20219;-78
2022/05/22 01:11:36;;;;;;;21.57;11.20;;;12.40;99.90;;;;;;4134392;28;20211;-79
2022/05/22 01:13:42;;;;;;;18.27;9.80;;;12.40;99.90;;;;;;4129573;28;20272;-78
2022/05/22 01:15:44;;;;;;;14.97;9.10;;;12.30;99.90;;;;;;4129306;28;20261;-77
2022/05/22 01:17:48;;;;;;;17.33;7.87;;;12.30;99.90;;;;;;4129089;28;20252;-80
2022/05/22 01:20:00;;;;;;;11.93;7.30;;;12.30;99.90;;;;;;4129666;28;20222;-80
2022/05/22 01:22:06;;;;;;;11.23;6.63;;;12.30;99.90;;;;;;4129187;28;20227;-79
2022/05/22 01:24:08;;;;;;;15.60;7.87;;;12.20;99.90;;;;;;4128154;28;20211;-80
2022/05/22 01:26:10;;;;;;;15.43;7.07;;;12.20;99.90;;;;;;4129044;28;20241;-78
2022/05/22 01:28:15;;;;;;;10.37;6.30;;;12.20;99.90;;;;;;4126281;28;20287;-79
2022/05/22 01:30:19;;;;;;;16.10;7.20;;;12.00;99.90;;;;;;4127491;28;20218;-79
2022/05/22 01:32:21;;;;;;;12.73;6.90;;;12.10;99.90;;;;;;4128109;28;20217;-79
2022/05/22 01:34:23;;;;;;;13.00;7.00;;;12.10;99.90;;;;;;4118253;28;20218;-80
2022/05/22 01:36:25;;;;;;;15.70;7.07;;;12.10;99.90;;;;;;4128388;28;20234;-78
2022/05/22 01:38:28;;;;;;;12.33;6.70;;;12.00;99.90;;;;;;4129142;28;20246;-77
2022/05/22 01:40:30;;;;;;;14.63;6.73;;;12.00;99.90;;;;;;4130160;28;20207;-76
2022/05/22 01:42:32;;;;;;;11.17;6.30;;;12.00;99.90;;;;;;4128448;28;20238;-77
2022/05/22 01:44:33;;;;;;;13.77;6.73;;;12.00;99.90;;;;;;4112973;28;20229;-76
2022/05/22 01:46:35;;;;;;;13.07;6.17;;;12.00;99.90;;;;;;4183763;28;20238;-76
2022/05/22 01:48:37;;;;;;;13.13;6.60;;;11.90;99.90;;;;;;4112749;28;20204;-78
2022/05/22 01:50:40;;;;;;;12.80;6.67;;;12.00;99.90;;;;;;4120651;28;20218;-75
2022/05/22 01:52:43;;;;;;;14.77;7.20;;;11.90;99.90;;;;;;4128417;28;20207;-75
2022/05/22 01:54:46;;;;;;;13.80;6.93;;;11.90;99.90;;;;;;4128351;28;20214;-76
2022/05/22 01:56:48;;;;;;;10.57;6.07;;;11.90;99.90;;;;;;4126683;28;20222;-76
2022/05/22 01:58:49;;;;;;;11.00;6.43;;;11.90;99.90;;;;;;4114721;28;20209;-76
2022/05/22 02:00:52;;;;;;;13.27;6.33;;;11.90;99.90;;;;;;4128552;28;20209;-78
2022/05/22 02:02:55;;;;;;;12.93;6.90;;;11.80;99.90;;;;;;4128308;28;20229;-76
2022/05/22 02:04:58;;;;;;;13.47;7.10;;;11.80;99.90;;;;;;4128162;28;20201;-78
2022/05/22 02:09:19;;;;;;;12.17;6.90;;;11.80;99.90;;;;;;4114796;28;20204;-75
2022/05/22 02:11:22;;;;;;;13.33;7.87;;;11.80;99.90;;;;;;4128265;28;20214;-76
2022/05/22 02:13:27;;;;;;;16.40;8.00;;;11.70;99.90;;;;;;4194679;28;20215;-78
2022/05/22 02:15:29;;;;;;;17.67;10.10;;;11.70;99.90;;;;;;4194411;28;20231;-77
2022/05/22 02:17:31;;;;;;;21.50;11.53;;;11.60;99.90;;;;;;4121886;28;20293;-76
2022/05/22 02:19:33;;;;;;;20.97;10.53;;;11.60;99.90;;;;;;4122351;28;20205;-77
2022/05/22 02:21:35;;;;;;;19.87;10.33;;;11.60;99.90;;;;;;4123819;28;20224;-76
2022/05/22 02:23:37;;;;;;;14.87;8.20;;;11.60;99.90;;;;;;4126401;28;20698;-76
2022/05/22 02:25:43;;;;;;;17.53;8.30;;;11.60;99.90;;;;;;4201664;28;20350;-76
2022/05/22 02:27:47;;;;;;;12.83;7.47;;;11.60;99.90;;;;;;4125667;28;20206;-76
2022/05/22 02:29:49;;;;;;;11.87;7.37;;;11.50;99.90;;;;;;4186063;28;20619;-76
2022/05/22 02:31:50;;;;;;;14.07;7.20;;;11.50;99.90;;;;;;4201316;28;20200;-76
2022/05/22 02:33:52;;;;;;;12.90;6.47;;;11.50;99.90;;;;;;4137740;28;20239;-78
2022/05/22 02:35:56;;;;;;;11.63;6.83;;;11.50;99.90;;;;;;4191065;28;20231;-78
2022/05/22 02:37:58;;;;;;;12.73;6.50;;;11.40;99.90;;;;;;4181799;28;20611;-77
2022/05/22 02:40:00;;;;;;;13.07;7.07;;;11.40;99.90;;;;;;4125933;28;20211;-76
2022/05/22 02:42:03;;;;;;;14.17;6.97;;;11.40;99.90;;;;;;4190198;28;20227;-77
2022/05/22 02:44:06;;;;;;;15.23;7.67;;;11.30;99.90;;;;;;4128125;28;20221;-78
2022/05/22 02:46:11;;;;;;;16.83;8.00;;;11.30;99.90;;;;;;4194161;28;20686;-77
2022/05/22 02:48:13;;;;;;;15.10;8.70;;;11.30;99.90;;;;;;4127691;28;20240;-76
2022/05/22 02:50:17;;;;;;;16.70;8.90;;;11.30;99.90;;;;;;4127157;28;20217;-76
2022/05/22 02:52:18;;;;;;;16.77;8.40;;;11.20;99.90;;;;;;4192001;28;20241;-76
2022/05/22 02:54:24;;;;;;;14.43;8.20;;;11.20;99.90;;;;;;4210232;28;20209;-76
2022/05/22 02:56:27;;;;;;;13.40;8.13;;;11.20;99.90;;;;;;4126549;28;20229;-76
2022/05/22 02:58:29;;;;;;;13.77;8.10;;;11.20;99.90;;;;;;4208330;28;20633;-77
2022/05/22 03:00:32;;;;;;;18.87;9.07;;;11.20;99.90;;;;;;4127914;28;20669;-76
2022/05/22 03:02:34;;;;;;;21.10;11.73;;;11.10;99.90;;;;;;4127641;28;20283;-76
2022/05/22 03:04:36;;;;;;;24.93;12.93;;;11.10;99.90;;;;;;4194394;28;20214;-77
2022/05/22 03:06:40;;;;;;;24.27;15.17;;;11.10;99.90;;;;;;4127370;28;20761;-80
2022/05/22 03:08:42;;;;;;;34.07;17.47;;;11.10;99.90;;;;;;4127403;28;20246;-77
2022/05/22 03:10:45;;;;;;;28.17;16.07;;;11.00;99.90;;;;;;4126917;28;20296;-77
2022/05/22 03:12:47;;;;;;;36.97;16.83;;;11.00;99.90;;;;;;4130689;28;20200;-76
2022/05/22 03:14:50;;;;;;;30.40;16.97;;;11.00;99.90;;;;;;4130457;28;20209;-77
2022/05/22 03:16:53;;;;;;;27.43;14.90;;;11.00;99.90;;;;;;4131033;28;20762;-76
2022/05/22 03:18:55;;;;;;;22.60;15.07;;;11.00;99.90;;;;;;4131779;28;20200;-76
2022/05/22 03:20:57;;;;;;;23.40;13.60;;;11.00;99.90;;;;;;4131317;28;20732;-76
2022/05/22 03:22:59;;;;;;;22.73;12.80;;;11.00;99.90;;;;;;4198963;28;20240;-76
2022/05/22 03:25:01;;;;;;;20.53;12.03;;;11.00;99.90;;;;;;4212984;28;20296;-77
2022/05/22 03:27:04;;;;;;;19.97;11.67;;;10.90;99.90;;;;;;4207743;28;20630;-77
2022/05/22 03:29:05;;;;;;;20.63;12.27;;;10.90;99.90;;;;;;4130451;28;20572;-77
2022/05/22 03:31:07;;;;;;;18.33;11.17;;;11.00;99.90;;;;;;4140758;28;20209;-77
2022/05/22 03:33:11;;;;;;;19.13;11.30;;;10.90;99.90;;;;;;4136849;28;20208;-79
2022/05/22 03:35:13;;;;;;;22.10;10.27;;;10.90;99.90;;;;;;4132482;28;20560;-76
2022/05/22 03:37:15;;;;;;;21.33;10.20;;;10.90;99.90;;;;;;4205655;28;20273;-76
2022/05/22 03:39:17;;;;;;;15.63;9.80;;;10.90;99.90;;;;;;4141209;28;20207;-77
2022/05/22 03:41:19;;;;;;;21.13;9.53;;;10.90;99.90;;;;;;4225279;28;20225;-76
2022/05/22 03:43:21;;;;;;;18.00;9.30;;;10.90;99.90;;;;;;4145087;28;20277;-78
2022/05/22 03:45:22;;;;;;;16.50;9.13;;;10.90;99.90;;;;;;4208768;28;21017;-78
2022/05/22 03:47:24;;;;;;;17.97;9.13;;;10.90;99.90;;;;;;4141488;28;20493;-76
2022/05/22 03:49:27;;;;;;;19.23;10.17;;;10.80;99.90;;;;;;4141331;28;20214;-77
2022/05/22 03:51:29;;;;;;;18.00;9.87;;;10.80;99.90;;;;;;4140819;28;20559;-78
2022/05/22 03:53:31;;;;;;;18.60;9.70;;;10.80;99.90;;;;;;4208642;28;20210;-77
2022/05/22 03:55:33;;;;;;;17.77;9.57;;;10.80;99.90;;;;;;4132129;28;20236;-77
2022/05/22 03:57:35;;;;;;;17.40;9.53;;;10.80;99.90;;;;;;4197011;28;20895;-75
2022/05/22 03:59:38;;;;;;;18.30;9.17;;;10.80;99.90;;;;;;4129555;28;20214;-79
2022/05/22 04:01:40;;;;;;;20.37;9.20;;;10.80;99.90;;;;;;4118484;28;20213;-76
2022/05/22 04:03:42;;;;;;;17.00;9.03;;;10.70;99.90;;;;;;4189284;28;20694;-76
2022/05/22 04:05:45;;;;;;;17.33;8.87;;;10.80;99.90;;;;;;4196242;28;20225;-76
2022/05/22 04:07:49;;;;;;;18.50;9.30;;;10.70;99.90;;;;;;4129223;28;22103;-75
2022/05/22 04:09:50;;;;;;;17.37;8.20;;;10.70;99.90;;;;;;4125677;28;20215;-76
2022/05/22 04:11:52;;;;;;;18.60;8.37;;;10.70;99.90;;;;;;4196578;28;20206;-76
2022/05/22 04:13:54;;;;;;;17.70;8.33;;;10.70;99.90;;;;;;4129228;28;20193;-76
2022/05/22 04:15:56;;;;;;;20.53;9.00;;;10.70;99.90;;;;;;4129603;28;20765;-76
2022/05/22 04:17:57;;;;;;;20.80;8.93;;;10.70;99.90;;;;;;4203056;28;20211;-78
2022/05/22 04:19:59;;;;;;;18.23;8.13;;;10.80;99.90;;;;;;4195764;28;20551;-77
2022/05/22 04:22:03;;;;;;;14.80;7.90;;;10.80;99.90;;;;;;4206640;28;20302;-76
2022/05/22 04:26:29;;;;;;;16.10;7.97;;;10.80;99.90;;;;;;4196340;28;20225;-77
2022/05/22 04:28:31;;;;;;;14.73;7.80;;;10.80;99.90;;;;;;4137799;28;20996;-76
2022/05/22 04:30:33;;;;;;;14.13;8.13;;;10.80;99.90;;;;;;4200463;28;20217;-77
2022/05/22 04:32:35;;;;;;;14.10;7.90;;;10.80;99.90;;;;;;4141705;28;20209;-76
2022/05/22 04:34:37;;;;;;;16.30;7.63;;;10.80;99.90;;;;;;4143041;28;20211;-76
2022/05/22 04:36:38;;;;;;;15.30;8.13;;;10.80;99.90;;;;;;4154414;28;20259;-80
2022/05/22 04:38:42;;;;;;;16.93;8.10;;;10.80;99.90;;;;;;4140279;28;20212;-77
2022/05/22 04:40:43;;;;;;;14.60;7.07;;;10.70;99.90;;;;;;4212622;28;20205;-77
2022/05/22 04:42:45;;;;;;;15.80;7.43;;;10.80;99.90;;;;;;4206431;28;20275;-76
2022/05/22 04:44:47;;;;;;;11.80;6.90;;;10.80;99.90;;;;;;4135006;28;20205;-77
2022/05/22 04:46:49;;;;;;;15.03;7.47;;;10.80;99.90;;;;;;4132133;28;20303;-77
2022/05/22 04:48:51;;;;;;;13.53;7.13;;;10.80;99.90;;;;;;4129835;28;20209;-77
2022/05/22 04:50:54;;;;;;;14.63;7.10;;;10.80;99.90;;;;;;4195717;28;20204;-78
2022/05/22 04:52:56;;;;;;;16.13;6.97;;;10.80;99.90;;;;;;4209389;28;20197;-75
2022/05/22 04:54:59;;;;;;;13.00;6.80;;;10.80;99.90;;;;;;4127857;28;20208;-76
2022/05/22 04:57:01;;;;;;;12.33;6.63;;;10.80;99.90;;;;;;4128252;28;20205;-75
2022/05/22 04:59:03;;;;;;;13.53;6.77;;;10.90;99.90;;;;;;4204619;28;20208;-76
2022/05/22 05:01:06;;;;;;;15.27;6.07;;;10.90;99.90;;;;;;4212087;28;20214;-76
2022/05/22 05:03:08;;;;;;;11.50;6.20;;;10.90;99.90;;;;;;4195002;28;20223;-76
2022/05/22 05:05:10;;;;;;;12.80;6.17;;;10.90;99.90;;;;;;4124093;28;20250;-76
2022/05/22 05:07:12;;;;;;;13.37;6.40;;;10.90;99.90;;;;;;4195156;28;20212;-75
2022/05/22 05:09:14;;;;;;;10.63;5.70;;;11.00;99.90;;;;;;4128817;28;20217;-76
2022/05/22 05:11:17;;;;;;;12.37;5.83;;;11.00;99.90;;;;;;4127571;28;20201;-77
2022/05/22 05:13:19;;;;;;;11.93;6.17;;;11.00;99.90;;;;;;4128632;28;20564;-77
2022/05/22 05:15:23;;;;;;;11.47;5.87;;;11.00;99.90;;;;;;4128601;28;20229;-77
2022/05/22 05:17:25;;;;;;;14.10;6.50;;;11.00;99.90;;;;;;4128624;28;20620;-77
2022/05/22 05:19:26;;;;;;;13.53;6.00;;;11.00;99.90;;;;;;4179017;28;20265;-77
2022/05/22 05:21:28;;;;;;;17.47;5.67;;;11.10;99.90;;;;;;4206809;28;20313;-76
2022/05/22 05:23:30;;;;;;;9.63;5.40;;;11.10;99.90;;;;;;4195298;28;20237;-74
2022/05/22 05:25:32;;;;;;;13.13;6.20;;;11.10;99.90;;;;;;4126988;28;20270;-77
2022/05/22 05:27:35;;;;;;;10.30;5.80;;;11.10;99.90;;;;;;4128191;28;20236;-78
2022/05/22 05:29:37;;;;;;;13.93;5.47;;;11.20;99.90;;;;;;4194726;28;20240;-77
2022/05/22 05:31:39;;;;;;;12.90;5.23;;;11.20;99.90;;;;;;4126687;28;20206;-78
2022/05/22 05:33:40;;;;;;;8.30;4.77;;;11.20;99.90;;;;;;4128123;28;20209;-77
2022/05/22 05:35:43;;;;;;;8.03;4.90;;;11.20;99.90;;;;;;4190225;28;20238;-77
2022/05/22 05:37:46;;;;;;;9.50;5.00;;;11.20;99.90;;;;;;4127645;28;20297;-78
2022/05/22 05:39:48;;;;;;;9.83;5.00;;;11.30;99.90;;;;;;4128038;28;20666;-78
2022/05/22 05:41:50;;;;;;;12.77;4.90;;;11.30;99.90;;;;;;4128646;28;20203;-77
2022/05/22 05:43:53;;;;;;;11.07;4.73;;;11.30;99.90;;;;;;4131440;28;20298;-79
2022/05/22 05:45:55;;;;;;;13.20;4.60;;;11.30;99.90;;;;;;4195323;28;20233;-78
2022/05/22 05:47:57;;;;;;;11.17;4.50;;;11.40;99.90;;;;;;4210108;28;20210;-77
2022/05/22 05:50:01;;;;;;;9.23;4.00;;;11.50;99.90;;;;;;4127828;28;20206;-78
2022/05/22 05:52:04;;;;;;;8.03;4.00;;;11.50;99.90;;;;;;4128398;28;20205;-78
2022/05/22 05:54:06;;;;;;;6.00;3.20;;;11.60;99.90;;;;;;4124624;28;20210;-76
2022/05/22 05:56:08;;;;;;;10.10;3.40;;;11.60;99.90;;;;;;4192013;28;20242;-77
2022/05/22 05:58:12;;;;;;;8.40;3.17;;;11.70;99.90;;;;;;4187225;28;20650;-77
2022/05/22 06:00:18;;;;;;;7.80;2.57;;;11.70;99.90;;;;;;4208832;28;20220;-76
2022/05/22 06:02:20;;;;;;;6.43;2.03;;;11.70;99.90;;;;;;4127607;28;20208;-77
2022/05/22 06:04:22;;;;;;;4.10;2.07;;;11.70;99.90;;;;;;4126312;28;20225;-78
2022/05/22 06:06:24;;;;;;;6.03;1.97;;;11.80;99.90;;;;;;4194415;28;20215;-78
2022/05/22 06:08:26;;;;;;;8.27;2.47;;;11.80;99.90;;;;;;4193021;28;20749;-76
2022/05/22 06:10:27;;;;;;;5.83;2.77;;;11.80;99.90;;;;;;4192408;28;20214;-78
2022/05/22 06:12:29;;;;;;;6.40;2.20;;;11.90;99.90;;;;;;4127965;28;20205;-77
2022/05/22 06:14:31;;;;;;;6.43;1.70;;;11.90;99.90;;;;;;4208455;28;20278;-79
2022/05/22 06:16:34;;;;;;;5.37;2.17;;;12.00;99.90;;;;;;4194440;28;20258;-77
2022/05/22 06:18:36;;;;;;;5.30;1.80;;;12.00;99.90;;;;;;4184388;28;20306;-78
2022/05/22 06:20:38;;;;;;;4.03;1.83;;;12.10;99.90;;;;;;4191519;28;20207;-77
2022/05/22 06:22:40;;;;;;;6.47;2.10;;;12.10;99.90;;;;;;4124242;28;20199;-77
2022/05/22 06:24:43;;;;;;;7.13;2.23;;;12.10;99.90;;;;;;4188357;28;20559;-78
2022/05/22 06:26:45;;;;;;;6.40;2.07;;;12.20;99.90;;;;;;4193939;28;20228;-76
2022/05/22 06:28:49;;;;;;;4.23;1.67;;;12.20;99.90;;;;;;4124663;28;20219;-79
2022/05/22 06:30:50;;;;;;;6.17;1.83;;;12.30;99.90;;;;;;4188155;28;20646;-78
2022/05/22 06:32:54;;;;;;;3.60;1.70;;;12.30;99.90;;;;;;4126083;28;20835;-77
2022/05/22 06:34:58;;;;;;;4.43;1.50;;;12.30;99.90;;;;;;4193104;28;20208;-77
2022/05/22 06:37:02;;;;;;;7.70;1.93;;;12.40;99.90;;;;;;4193664;28;20258;-78
2022/05/22 06:41:24;;;;;;;5.17;1.60;;;12.50;99.90;;;;;;4191030;28;20213;-77
2022/05/22 06:43:26;;;;;;;6.10;1.40;;;12.60;99.90;;;;;;4125042;28;20568;-77
2022/05/22 06:45:28;;;;;;;4.47;1.43;;;12.60;99.90;;;;;;4193788;28;20232;-76
2022/05/22 06:47:31;;;;;;;4.77;1.87;;;12.70;99.90;;;;;;4192955;28;20223;-77
2022/05/22 06:49:35;;;;;;;3.63;1.60;;;12.80;99.90;;;;;;4123376;28;20662;-78
2022/05/22 06:51:38;;;;;;;4.67;1.60;;;12.90;99.90;;;;;;4186311;28;20934;-75
2022/05/22 06:53:40;;;;;;;6.37;1.73;;;12.90;99.90;;;;;;4193451;28;20851;-79
2022/05/22 06:55:42;;;;;;;5.00;1.60;;;13.00;99.90;;;;;;4193861;28;20262;-76
2022/05/22 06:57:44;;;;;;;8.80;2.13;;;13.00;99.90;;;;;;4124700;28;20262;-77
2022/05/22 06:59:48;;;;;;;5.53;2.20;;;13.10;99.90;;;;;;4189100;28;20601;-76
2022/05/22 07:01:49;;;;;;;6.87;1.97;;;13.10;99.90;;;;;;4126836;28;20204;-76
2022/05/22 07:03:52;;;;;;;5.00;2.00;;;13.10;99.90;;;;;;4127606;28;20734;-76
2022/05/22 07:05:55;;;;;;;4.33;1.93;;;13.10;99.90;;;;;;4127308;28;20658;-75
2022/05/22 07:07:56;;;;;;;5.57;2.07;;;13.20;99.90;;;;;;4121829;28;20216;-76
2022/05/22 07:09:58;;;;;;;5.23;2.17;;;13.20;99.90;;;;;;4191869;28;20649;-75
2022/05/22 07:12:00;;;;;;;5.10;1.73;;;13.30;99.90;;;;;;4126446;28;20583;-75
2022/05/22 07:14:02;;;;;;;6.83;1.73;;;13.40;99.90;;;;;;4194167;28;20208;-77
2022/05/22 07:16:06;;;;;;;6.03;2.50;;;13.40;99.90;;;;;;4127349;28;20236;-77
2022/05/22 07:18:08;;;;;;;8.73;2.23;;;13.40;99.90;;;;;;4199971;28;20213;-77
2022/05/22 07:20:11;;;;;;;5.10;1.73;;;13.50;99.90;;;;;;4120479;28;20672;-76
2022/05/22 07:22:14;;;;;;;9.93;2.60;;;13.50;99.90;;;;;;4187798;28;20202;-77
2022/05/22 07:24:16;;;;;;;10.23;1.70;;;13.60;99.90;;;;;;4125617;28;20224;-76
2022/05/22 07:26:19;;;;;;;7.33;2.00;;;13.60;99.90;;;;;;4193903;28;20283;-77
2022/05/22 07:28:21;;;;;;;8.00;2.20;;;13.70;99.90;;;;;;4126868;28;20275;-76
2022/05/22 07:30:23;;;;;;;9.83;1.87;;;13.80;99.90;;;;;;4116020;28;20896;-76
2022/05/22 07:32:25;;;;;;;5.33;1.90;;;13.80;99.90;;;;;;4193609;28;20553;-76
2022/05/22 07:34:27;;;;;;;5.33;1.70;;;13.90;99.90;;;;;;4127171;28;20205;-77
2022/05/22 07:36:29;;;;;;;4.27;1.60;;;13.90;99.90;;;;;;4186181;28;20734;-77
2022/05/22 07:38:32;;;;;;;8.57;2.10;;;13.90;99.90;;;;;;4121225;28;20216;-76
2022/05/22 07:40:34;;;;;;;12.47;2.10;;;14.00;99.90;;;;;;4193712;28;20570;-80
2022/05/22 07:42:36;;;;;;;3.57;1.70;;;14.10;99.90;;;;;;4125367;28;20360;-76
2022/05/22 07:44:40;;;;;;;7.93;1.97;;;14.10;99.90;;;;;;4127112;28;20657;-78
2022/05/22 07:46:42;;;;;;;6.23;2.17;;;14.20;99.90;;;;;;4189702;28;20731;-78
2022/05/22 07:48:44;;;;;;;10.80;1.77;;;14.20;99.90;;;;;;4205822;28;20728;-78
2022/05/22 07:50:46;;;;;;;8.77;1.60;;;14.30;99.90;;;;;;4184887;28;20296;-77
2022/05/22 07:52:48;;;;;;;8.27;1.83;;;14.30;99.90;;;;;;4129832;28;21004;-76
2022/05/22 07:54:51;;;;;;;3.80;1.80;;;14.40;99.90;;;;;;4128936;28;20196;-77
2022/05/22 07:56:54;;;;;;;6.40;2.27;;;14.40;99.90;;;;;;4203047;28;20595;-77
2022/05/22 07:58:56;;;;;;;5.37;1.83;;;14.50;99.90;;;;;;4129770;28;20660;-77
2022/05/22 08:00:58;;;;;;;7.97;2.07;;;14.40;99.90;;;;;;4127741;28;20205;-77
2022/05/22 08:03:06;;;;;;;8.33;1.70;;;14.60;99.90;;;;;;4130046;28;20368;-77
2022/05/22 08:05:09;;;;;;;6.77;1.67;;;14.60;99.90;;;;;;4125823;28;20217;-77
2022/05/22 08:07:11;;;;;;;8.37;2.10;;;14.60;99.90;;;;;;4134468;28;20205;-78
2022/05/22 08:09:13;;;;;;;7.63;2.07;;;14.70;99.90;;;;;;4204455;28;20210;-77
2022/05/22 08:11:16;;;;;;;4.57;1.70;;;14.70;99.90;;;;;;4131629;28;20295;-78
2022/05/22 08:13:18;;;;;;;4.70;1.73;;;14.80;99.90;;;;;;4131045;28;20291;-77
2022/05/22 08:15:23;;;;;;;6.47;2.00;;;15.00;99.90;;;;;;4193341;28;20234;-77
2022/05/22 08:17:25;;;;;;;6.27;1.90;;;15.10;99.90;;;;;;4127883;28;20213;-77
2022/05/22 08:19:27;;;;;;;9.17;1.90;;;15.20;99.90;;;;;;4191481;28;20234;-78
2022/05/22 08:21:28;;;;;;;6.70;2.10;;;15.30;99.90;;;;;;4124764;28;20219;-77
2022/05/22 08:23:30;;;;;;;9.47;2.10;;;15.40;99.90;;;;;;4205393;28;20210;-77
2022/05/22 08:25:32;;;;;;;3.90;1.70;;;15.60;99.90;;;;;;4128803;28;20232;-77
2022/05/22 08:27:35;;;;;;;8.40;2.00;;;15.60;99.90;;;;;;4129067;28;20576;-76
2022/05/22 08:29:37;;;;;;;10.03;2.13;;;15.70;99.90;;;;;;4126046;28;20769;-79
2022/05/22 08:31:39;;;;;;;7.60;2.20;;;15.70;99.90;;;;;;4203168;28;20226;-77
2022/05/22 08:33:41;;;;;;;8.00;2.30;;;15.80;99.90;;;;;;4129074;28;20207;-76
2022/05/22 08:35:44;;;;;;;8.23;2.27;;;15.90;99.90;;;;;;4194731;28;20243;-77
2022/05/22 08:37:46;;;;;;;5.83;2.10;;;16.00;99.90;;;;;;4129002;28;20230;-76
2022/05/22 08:39:48;;;;;;;8.10;2.00;;;16.00;99.90;;;;;;4127071;28;20307;-77
2022/05/22 08:41:52;;;;;;;4.33;1.77;;;16.10;99.90;;;;;;4126391;28;20217;-77
2022/05/22 08:44:03;;;;;;;4.33;2.00;;;16.10;99.90;;;;;;4128116;28;20224;-79
2022/05/22 08:46:12;;;;;;;9.67;2.10;;;16.20;99.90;;;;;;4125108;28;20234;-77
2022/05/22 08:48:21;;;;;;;12.00;2.50;;;16.30;99.90;;;;;;4154000;23;20207;-82
2022/05/22 08:50:24;;;;;;;6.67;2.00;;;16.40;99.90;;;;;;4080298;29;20235;-85
2022/05/22 08:52:32;;;;;;;4.03;1.60;;;16.40;99.90;;;;;;4079961;29;20211;-84
2022/05/22 08:54:38;;;;;;;7.87;2.17;;;16.50;99.90;;;;;;4079817;29;20202;-84
2022/05/22 08:59:09;;;;;;;5.73;1.80;;;16.90;99.90;;;;;;4068023;29;20785;-84
2022/05/22 09:01:15;;;;;;;5.77;1.97;;;16.80;99.90;;;;;;4061824;29;20206;-83
2022/05/22 09:03:24;;;;;;;6.50;1.90;;;17.00;98.40;;;;;;4079807;29;20211;-85
2022/05/22 09:05:28;;;;;;;7.37;1.70;;;17.00;98.00;;;;;;4065428;28;20691;-84
2022/05/22 09:07:38;;;;;;;3.53;1.30;;;17.10;97.20;;;;;;4080657;29;20215;-85
2022/05/22 09:09:42;;;;;;;9.30;2.40;;;17.10;96.10;;;;;;4081172;29;20268;-84
2022/05/22 09:12:03;;;;;;;4.03;1.20;;;17.10;95.80;;;;;;4075129;29;20671;-84
2022/05/22 09:14:10;;;;;;;7.83;1.97;;;17.10;93.40;;;;;;4080454;29;20201;-84
2022/05/22 09:16:15;;;;;;;9.47;1.73;;;17.10;94.90;;;;;;4079019;29;20305;-84
2022/05/22 09:18:33;;;;;;;7.83;1.87;;;17.10;96.20;;;;;;4063801;29;20223;-85
2022/05/22 09:20:44;;;;;;;8.00;2.00;;;17.10;95.90;;;;;;4079541;28;20253;-84
2022/05/22 09:23:17;;;;;;;6.53;2.00;;;17.00;96.20;;;;;;4230262;27;20608;-84
2022/05/22 09:25:27;;;;;;;5.50;1.43;;;17.10;95.00;;;;;;4223986;28;20197;-83
2022/05/22 09:27:40;;;;;;;6.20;1.80;;;17.40;94.60;;;;;;4222032;28;20210;-83
2022/05/22 09:30:05;;;;;;;6.80;2.00;;;17.00;94.40;;;;;;4208928;28;20244;-82
2022/05/22 09:32:34;;;;;;;6.00;1.87;;;17.10;94.70;;;;;;4210165;28;20284;-84
2022/05/22 09:34:44;;;;;;;7.57;2.10;;;17.30;93.30;;;;;;4289407;22;20196;-84
2022/05/22 09:37:00;;;;;;;10.57;1.80;;;17.40;92.60;;;;;;4204680;28;20212;-83
2022/05/22 09:39:14;;;;;;;6.30;2.13;;;17.70;92.20;;;;;;4202771;28;20225;-84
2022/05/22 09:41:26;;;;;;;5.87;1.80;;;17.50;91.70;;;;;;4205318;28;20296;-83
2022/05/22 09:43:59;;;;;;;6.57;2.10;;;17.50;92.20;;;;;;4204786;28;20261;-87
2022/05/22 09:46:17;;;;;;;5.63;1.97;;;17.50;92.70;;;;;;4220638;28;20285;-84
2022/05/22 09:48:43;;;;;;;5.67;1.60;;;17.50;92.40;;;;;;4239164;28;20196;-86
2022/05/22 09:50:51;;;;;;;9.13;2.10;;;17.50;92.80;;;;;;4238942;28;20634;-83
2022/05/22 09:53:02;;;;;;;7.13;2.07;;;17.60;93.00;;;;;;4221498;28;20196;-83
2022/05/22 09:55:15;;;;;;;6.13;1.90;;;17.50;92.10;;;;;;4223398;28;20725;-81
2022/05/22 09:57:29;;;;;;;5.07;1.80;;;17.60;87.10;;;;;;4220594;28;20205;-82
2022/05/22 09:59:49;;;;;;;4.90;1.77;;;17.60;83.60;;;;;;4216134;28;20267;-84
2022/05/22 10:01:56;;;;;;;6.13;2.20;;;17.70;77.60;;;;;;4219893;28;20289;-83
2022/05/22 10:04:15;;;;;;;6.30;1.60;;;17.70;80.80;;;;;;4222076;28;20914;-82
2022/05/22 10:06:27;;;;;;;3.27;1.73;;;17.80;81.80;;;;;;4225897;28;20303;-81
2022/05/22 10:08:40;;;;;;;5.20;1.80;;;17.90;76.60;;;;;;4221531;28;20228;-80
2022/05/22 10:10:52;;;;;;;5.17;1.87;;;17.90;72.40;;;;;;4215985;28;20205;-78
2022/05/22 10:13:03;;;;;;;4.57;1.87;;;18.00;71.50;;;;;;4217461;28;20197;-79
2022/05/22 10:15:17;;;;;;;7.73;2.50;;;18.10;68.90;;;;;;4219077;28;20243;-80
2022/05/22 10:17:35;;;;;;;5.23;1.90;;;18.20;68.90;;;;;;4219783;28;20323;-78
2022/05/22 10:19:48;;;;;;;6.27;1.80;;;18.30;69.50;;;;;;4216861;28;20765;-79
2022/05/22 10:21:58;;;;;;;5.60;1.90;;;18.40;69.30;;;;;;4219871;28;20296;-79
2022/05/22 10:24:19;;;;;;;5.63;2.00;;;18.50;72.40;;;;;;4219880;28;20602;-80
2022/05/22 10:26:34;;;;;;;9.03;2.50;;;18.70;73.60;;;;;;4217197;28;20202;-80
2022/05/22 10:28:44;;;;;;;8.30;2.50;;;18.80;70.00;;;;;;4219610;28;20202;-79
2022/05/22 10:30:50;;;;;;;7.43;1.80;;;18.90;66.50;;;;;;4217571;28;20302;-80
2022/05/22 10:32:59;;;;;;;5.67;2.00;;;18.90;59.20;;;;;;4210468;28;21503;-80
2022/05/22 10:35:08;;;;;;;4.97;1.90;;;18.90;59.80;;;;;;4208818;28;20819;-79
2022/05/22 10:37:21;;;;;;;7.87;2.20;;;19.10;59.40;;;;;;4202837;28;20210;-81
2022/05/22 10:39:23;;;;;;;5.37;1.90;;;19.20;62.00;;;;;;4209218;28;20203;-80
2022/05/22 10:43:54;;;;;;;7.53;2.13;;;19.50;61.60;;;;;;4205117;28;20539;-79
2022/05/22 10:46:10;;;;;;;7.00;2.10;;;19.60;60.30;;;;;;4208021;28;20229;-78
2022/05/22 10:51:59;;;;;;;4.40;1.90;;;19.80;58.50;;;;;;4135076;28;20203;-80
2022/05/22 10:54:02;;;;;;;7.70;2.10;;;19.80;57.40;;;;;;4124599;28;20227;-79
2022/05/22 10:56:33;;;;;;;7.13;2.43;;;19.90;57.60;;;;;;4179844;28;20253;-79
2022/05/22 10:58:56;;;;;;;5.37;2.30;;;20.00;56.80;;;;;;4185431;28;20240;-79
2022/05/22 11:01:00;;;;;;;4.07;1.90;;;20.10;55.30;;;;;;4199343;28;20209;-79